INDIA METEOROLOGICAL DEPARTMENT, R.M.C. NEW DELHI
Dated:23 - 10 - 2014
METARS


Agartala   
VEAT 230530Z 30005KT 4000 HZ FEW020 SCT025 31/23 Q1013 NOSIG=
Ahmedabad  
SPECI VAAH 230540Z 10004KT 5000 FU NSC 34/17 Q1014 BECMG 6000=
Amritsar   
VIAR 230530Z VRB02KT 3000 HZ NSC 29/17 Q1016=
Aurangabad 
VAAU 230500Z 10006KT 6000 NSC 31/19 Q1018=
Bangalore  
VOBL 230530Z 10008KT 050V140 8000 SCT012 SCT020 28/23 Q1019 NOSIG=
Baroda     
VABO 230500Z 10003KT 6000 NSC 32/18 Q1014=
Bhopal     
VABP 230500Z 20008KT 4000 HZ NSC 31/16 Q1018 NOSIG=
Bhubaneswar
VEBS 230530Z 05002KT 3000 HZ FEW020 SCT025 30/23 Q1014 NOSIG=
Bhuntar    
SPECI VIBR 230500Z 11004KT 8000 FEW040 20/11 Q1021=
Chennai    
SPECI VOMM 230540Z 06004KT 5000 HZ SCT020 SCT022 FEW025CB SCT100 27/25 Q1013 NOSIG=
Coimbatore 
VOCB 230530Z 05002KT 6000 SCT015 BKN080 28/22 Q1016 NOSIG=
Colombo    
VCBI 230540Z 23004KT 9999 FEW016 SCT080 28/24 Q1013 NOSIG=
Delhi      
VIDP 230500Z 12005KT 2800 HZ NSC 30/18 Q1016 BECMG 3000=
Dehradun   
VIDN 230530Z 22004KT 2500 HZ NSC 26/18 Q1018=
Gauhati    
VEGT 230530Z 34006KT 5000 HZ FEW020 30/22 Q1014 NOSIG=
Gaya       
VEGY 230500Z 00000KT 2500 HZ NSC 26/19 Q1016=
Gaggal     
VIGG 230530Z 17002KT 5000 HZ FEW035 25/16 Q1019=
Goa        
VOGO 230430Z 06007KT 6000 FEW020 30/25 Q1012 NOSIG =
Hyderabad  
VOHS 230540Z 02005KT 5000 HZ SCT015 SCT200 27/16 Q1018 NOSIG=
Imphal     
VEIM 230400Z 12002KT 4500 HZ FEW016 23/16 Q1019 NOSIG=
Jaipur     
VIJP 230530Z 14003KT 2000 FU NSC 32/13 Q1017 NOSIG=
Kochi      
VOCI 230530Z 00000KT 5000 HZ FEW020 BKN090 28/24 Q1013 NOSIG=
Kolkata    
VECC 230550Z 35006KT 3500 HZ SCT020 31/20 Q1013 NOSIG=
Kozhikode  
VOCL 230530Z 22003KT 8000 FEW015 SCT018 28/24 Q1013 NOSIG=
Lucknow    
VILK 230500Z 14003KT 2500 HZ NSC 26/20 Q1016 BECMG 3000 HZ BR=
Madurai    
SPECI VOMD 230530Z 12006KT 5000 HZ FEW012 SCT015 OVC090 25/24 Q1015=
Mohanbari  
VEMN 230530Z 34006KT 8000 FEW025 30/22 Q1014 NOSIG=
Mumbai     
VABB 230540Z 16009KT 3500 FU NSC 34/17 Q1013 NOSIG=
Nagpur     
VANP 230510Z 10002KT 5000 HZ NSC 31/16 Q1016 NOSIG=
Patna      
VEPT 230520Z 02002KT 2500 HZ NSC 29/22 Q1015 NOSIG=
Raipur     
VARP 230530Z 09002KT 3000 HZ NSC 30/18 Q1016 NOSIG=
Safdarjung
VIDD 230500Z 11005KT 1200 FU NSC 30/20 Q1016=
Shimla    
VISM 230500Z 27004KT 6000 NSC 20/13 Q1024=
Ranchi     
VERC 230500Z 18004KT 4500 HZ SCT018 SCT025 27/16 Q1018 NOSIG =
Trichy     
VOTR 230540Z 08006KT 2000 RA FEW010 SCT016 OVC080 26/25 Q1014 TEMPO 1500 TSRA=
Trivandrum 
VOTV 230540Z 19004KT 5000 HZ SCT015 FEW025CB BKN090 28/25 Q1013 NOSIG=
Udaipur    
VAUD 230400Z 00000KT 6000 NSC 25/13 Q1018 NOSIG=
Varanasi   
VIBN 230530Z 00000KT 4500 HZ NSC 29/18 Q1016=
Male       
VRMM 230500Z 22005KT 9999 FEW017TCU BKN110 29/25 Q1014 TEMPO 4000 SHRA=
Gan        
VRMG 230500Z 26004KT 9999 FEW017 BKN110 29/23 Q1012=
Kathmandu   
VNKT 230550Z 00000KT 7000 FEW020 23/13 Q1022 NOSIG=
Dhaka      
VGHS 230450Z 31005KT 5000 HZ FEW025 SCT100 30/20 Q1013 NOSIG=
Colombo     
VCBI 230540Z 23004KT 9999 FEW016 SCT080 28/24 Q1013 NOSIG=
Karachi     
OPKC 230525Z 36004KT 5000 HZ NSC 33/09 Q1015 NOSIG=
Lahore      
OPLA 230529Z 16004KT 5000 FU NSC 28/18 Q1016=
Leh        
VILH 230430Z VRB02KT 6000 FEW050 10/M13 Q1034 NOSIG=
Thoise     
VITX 230430Z VRB02KT 6000 FEW050 10/M13 Q1034 NOSIG=
Sri Nagar  
VISR 230430Z VRB02KT 3500 HZ FEW025 SCT090 BKN200 15/07 Q1025 NOSIG=
Jammu      
VIJU 230430Z 16004KT 5000 HZ SCT200 26/18 Q1016 NOSIG=
Jodhpur    
VIJO 230430Z VRB02KT 6000 FEW120 30/11 Q1016 NOSIG=
Bhuj-Rudra 
VABJ 230430Z VRB01KT 6000 SKC 33/16 Q1015 NOSIG=
Gorakhpur  
VEGK 230430Z VRB02KT 3000 HZ SKC 27/19 Q1016 BECMG 3500=
Allahabad  
VIAL 230430Z VRB02KT 5000 HZ SKC 29/18 Q1016 NOSIG=
Agra       
VIAG 230430Z VRB02KT 3000 HZ SKC 31/17 Q1016 BECMG 5000=
Siliguri   
VEBD 230430Z VRB02KT 6000 FEW025 30/22 Q1016 NOSIG=
Gwalior    
VIGR 230430Z 14003KT 4000 HZ SKC 30/16 Q1016 NOSIG=
Pune       
VAPO 230430Z 11005KT 3000 FU SKC 29/18 Q1019 NOSIG=
Jamnagar   
VAJM 230430Z 07004KT 6000 SKC 29/18 Q1014 NOSIG=